首页
METAR-TAF:

METAR-TAF

机场 :

Price County Airport

Phillips, 威斯康辛州, 美国

纬度: 45-42N, 经度: 090-24W, 海拔: 449米

当前天气观测

该预报发布于17分钟前的07:55 UTC
风速5节,风向西北
温度 -14°C
湿度 85%
气压 1011 hPa
能見度: 6.4公里
阴天层高于1600英尺
小雪

METAR: KPBH 100755Z AUTO 32005KT 4SM -SN OVC016 M14/M16 A2984 RMK AO2 T11401163

时间: 02:12 (08:12 UTC)


TAF: 丢失

超过4000个机场的气象观测和天气预报(METAR&TAF报告)。

可查询的气象台以黄色和红色小点在地图上表示。

将鼠标移到小点上方,可查看气象台名称。

然后点击查看天气观测和预报。

如需切换地图:点击带黑十字的绿色按钮放大地图;点击带横线的绿色按钮缩小地图;或者点击绿色箭头查看邻近地区的地图。


METAR-TAF: